• Join FlightAware (Why Join?)
  • Login
  • US Flag 
06:23PM EDT


 

Airport Tracker/Info


-or-


 

Live Flight TrackerFlight Track Log ✈ UPS1122 ✈ 03-Aug-2013 ✈ KSDF - KBDL

Flight Track Log - Related Links

Times and Time Zones

All times are in EDT time to prevent confusion due to time zone crossing. See the UPS1122 flight status page for this flight to view local times or setup timezone preferences in your user account.

Time Position Orientation Groundspeed Altitude Reporting Facility
EDT Latitude Longitude Course Direction KTS MPH feet Rate Location/Type
04:34AM 38.1840 -85.7300 67° East 72 83  Level FlightAware
04:34AM 38.1680 -85.7250 166° South 153 176 1,000 2,220 Climbing FlightAware
04:34AM 38.1540 -85.7190 161° South 162 186 1,800 1,800 Climbing FlightAware
04:35AM 38.1390 -85.7140 165° South 181 208 2,200 1,500 Climbing FlightAware
04:35AM 38.1210 -85.7070 163° South 196 226 2,800 1,800 Climbing FlightAware
04:36AM 38.1010 -85.7000 165° South 208 239 3,500 1,860 Climbing FlightAware
04:36AM 38.0840 -85.6940 164° South 218 251 4,100 1,920 Climbing FlightAware
04:36AM 38.0740 -85.6880 155° Southeast 232 267 4,400 1,740 Climbing FlightAware
04:36AM 38.0670 -85.6830 151° Southeast 241 277 4,600 1,500 Climbing FlightAware
04:36AM 38.0610 -85.6750 134° Southeast 251 289 4,800 1,500 Climbing FlightAware
04:36AM 38.0580 -85.6690 122° Southeast 258 297 4,900 1,380 Climbing FlightAware
04:36AM 38.0540 -85.6570 113° Southeast 271 312 5,100 1,500 Climbing FlightAware
04:37AM 38.0520 -85.6450 102° East 280 322 5,300 2,100 Climbing FlightAware
04:37AM 38.0530 -85.6040 88° East 294 338 6,200 2,400 Climbing FlightAware
04:37AM 38.0510 -85.5590 93° East 302 348 7,300 2,400 Climbing FlightAware
04:38AM 38.0500 -85.5310 93° East 307 353 7,900 2,280 Climbing FlightAware
04:38AM 38.0560 -85.4910 79° East 310 357 8,800 2,400 Climbing FlightAware
04:38AM 38.0620 -85.4750 65° Northeast 311 358 9,200 2,340 Climbing FlightAware
04:39AM 38.0870 -85.4210 60° Northeast 321 369 10,500 1,680 Climbing FlightAware
04:39AM 38.1150 -85.3580 61° Northeast 359 413 11,200 1,080 Climbing FlightAware
04:40AM 38.1480 -85.2890 59° Northeast 391 450 11,800 900 Climbing FlightAware
04:41AM 38.1820 -85.2140 60° Northeast 421 484 12,300 1,140 Climbing FlightAware
04:41AM 38.2130 -85.1440 61° Northeast 433 498 13,100 1,680 Climbing FlightAware
04:42AM 38.2460 -85.0710 60° Northeast 440 506 14,100 1,740 Climbing FlightAware
04:42AM 38.2870 -84.9820 60° Northeast 445 512 15,200 1,740 Climbing FlightAware
04:43AM 38.3210 -84.9080 60° Northeast 449 517 16,200 1,680 Climbing FlightAware
04:43AM 38.3570 -84.8290 60° Northeast 452 520 17,100 1,560 Climbing FlightAware
04:44AM 38.3970 -84.7410 60° Northeast 457 526 18,100 1,440 Climbing FlightAware
04:45AM 38.4320 -84.6630 60° Northeast 462 532 18,800 1,320 Climbing FlightAware
04:45AM 38.4740 -84.5700 60° Northeast 467 537 19,700 1,380 Climbing FlightAware
04:46AM 38.5100 -84.4900 60° Northeast 470 541 20,500 1,260 Climbing FlightAware
04:46AM 38.5490 -84.4030 60° Northeast 477 549 21,200 1,200 Climbing FlightAware
04:47AM 38.5920 -84.3090 60° Northeast 483 556 22,000 1,380 Climbing FlightAware
04:48AM 38.6260 -84.2320 61° Northeast 489 563 22,800 1,500 Climbing FlightAware
04:48AM 38.6650 -84.1440 60° Northeast 495 570 23,700 1,380 Climbing FlightAware
04:49AM 38.7090 -84.0460 60° Northeast 499 574 24,500 1,200 Climbing FlightAware
04:49AM 38.7460 -83.9620 61° Northeast 504 580 25,100 1,020 Climbing FlightAware
04:50AM 38.7880 -83.8680 60° Northeast 510 587 25,700 1,020 Climbing FlightAware
04:50AM 38.8260 -83.7820 60° Northeast 515 593 26,300 1,620 Climbing FlightAware
04:51AM 38.8680 -83.6860 61° Northeast 501 577 27,600 1,740 Climbing FlightAware
04:51AM 38.9010 -83.6100 61° Northeast 505 581 28,200 1,200 Climbing FlightAware
04:52AM 38.9420 -83.5170 60° Northeast 506 582 28,900 1,200 Climbing FlightAware
04:53AM 38.9830 -83.4230 61° Northeast 507 583 29,700 1,320 Climbing FlightAware
04:53AM 39.0190 -83.3400 61° Northeast 508 585 30,400 1,380 Climbing FlightAware
04:54AM 39.0710 -83.2180 61° Northeast 507 583 31,500 1,440 Climbing FlightAware
04:55AM 39.1190 -83.1080 61° Northeast 505 581 32,500 1,200 Climbing FlightAware
04:55AM 39.1550 -83.0240 61° Northeast 504 580 33,000 420 Climbing FlightAware
04:56AM 39.1960 -82.9270 61° Northeast 518 596 33,000  Level FlightAware
04:56AM 39.2390 -82.8260 61° Northeast 527 606 33,000  Level FlightAware
04:57AM 39.2820 -82.7250 61° Northeast 528 608 33,000  Level FlightAware
04:58AM 39.3200 -82.6350 61° Northeast 525 604 33,000  Level FlightAware
04:58AM 39.3730 -82.5090 61° Northeast 522 601 33,000  Level FlightAware
04:59AM 39.4140 -82.4110 62° Northeast 519 597 33,000  Level FlightAware
04:59AM 39.4520 -82.3220 61° Northeast 522 601 33,000  Level FlightAware
05:00AM 39.4880 -82.2350 62° Northeast 522 601 33,000  Level FlightAware
05:01AM 39.5330 -82.1290 61° Northeast 521 600 33,000  Level FlightAware
05:01AM 39.5710 -82.0370 62° Northeast 521 600 33,000  Level FlightAware
05:02AM 39.6120 -81.9380 62° Northeast 521 600 33,000  Level FlightAware
05:02AM 39.6530 -81.8380 62° Northeast 519 597 33,000  Level FlightAware
05:03AM 39.6950 -81.7380 61° Northeast 520 598 33,000  Level FlightAware
05:04AM 39.7310 -81.6480 62° Northeast 521 600 33,000  Level FlightAware
05:04AM 39.7680 -81.5590 62° Northeast 522 601 33,000  Level FlightAware
05:05AM 39.8110 -81.4530 62° Northeast 522 601 33,000  Level FlightAware
05:05AM 39.8510 -81.3550 62° Northeast 523 602 33,000  Level FlightAware
05:06AM 39.8930 -81.2520 62° Northeast 523 602 33,000  Level FlightAware
05:06AM 39.9310 -81.1580 62° Northeast 523 602 33,000  Level FlightAware
05:07AM 39.9720 -81.0560 62° Northeast 523 602 33,000  Level FlightAware
05:08AM 40.0120 -80.9560 62° Northeast 523 602 33,000  Level FlightAware
05:08AM 40.0480 -80.8680 62° Northeast 523 602 33,000  Level FlightAware
05:09AM 40.0870 -80.7690 63° Northeast 523 602 33,000  Level FlightAware
05:09AM 40.1290 -80.6650 62° Northeast 523 602 33,000  Level FlightAware
05:10AM 40.1690 -80.5630 63° Northeast 524 603 33,000  Level FlightAware
05:11AM 40.2100 -80.4590 63° Northeast 523 602 33,000  Level FlightAware
05:11AM 40.2440 -80.3720 63° Northeast 522 601 33,000  Level FlightAware
05:12AM 40.2830 -80.2730 63° Northeast 521 600 33,000  Level FlightAware
05:12AM 40.3240 -80.1690 63° Northeast 519 597 33,000  Level FlightAware
05:13AM 40.3590 -80.0790 63° Northeast 518 596 33,000  Level FlightAware
05:13AM 40.3990 -79.9740 63° Northeast 516 594 33,000  Level FlightAware
05:14AM 40.4380 -79.8730 63° Northeast 518 596 33,000  Level FlightAware
05:15AM 40.4760 -79.7750 63° Northeast 519 597 33,000  Level FlightAware
05:15AM 40.5110 -79.6830 63° Northeast 521 600 33,000  Level FlightAware
05:16AM 40.5490 -79.5850 63° Northeast 522 601 33,000  Level FlightAware
05:16AM 40.5900 -79.4750 64° Northeast 525 604 33,000  Level FlightAware
05:17AM 40.6290 -79.3750 63° Northeast 527 606 33,000  Level FlightAware
05:18AM 40.6640 -79.2810 64° Northeast 529 609 33,000  Level FlightAware
05:18AM 40.7000 -79.1870 63° Northeast 530 610 33,000  Level FlightAware
05:19AM 40.7430 -79.0730 64° Northeast 530 610 33,000  Level FlightAware
05:19AM 40.7800 -78.9710 64° Northeast 530 610 33,000  Level FlightAware
05:20AM 40.8210 -78.8600 64° Northeast 532 612 33,000  Level FlightAware
05:20AM 40.8480 -78.7870 64° Northeast 533 613 33,000  Level FlightAware
05:21AM 40.8880 -78.6770 64° Northeast 534 615 33,000  Level FlightAware
05:22AM 40.9250 -78.5780 64° Northeast 534 615 33,000  Level FlightAware
05:22AM 40.9750 -78.4410 64° Northeast 535 616 33,000  Level FlightAware
05:23AM 41.0200 -78.3200 64° Northeast 537 618 33,000  Level FlightAware
05:24AM 41.0530 -78.2300 64° Northeast 537 618 33,000  Level FlightAware
05:24AM 41.0860 -78.1390 64° Northeast 537 618 33,000  Level FlightAware
05:25AM 41.1190 -78.0480 64° Northeast 537 618 33,000  Level FlightAware
05:25AM 41.1847 -77.8686 64° Northeast 543 625 33,000  Level FlightAware ADS-B
05:26AM 41.2327 -77.7371 64° Northeast 545 627 33,000  Level FlightAware ADS-B
05:27AM 41.2665 -77.6440 64° Northeast 545 627 33,000  Level FlightAware ADS-B
05:27AM 41.2910 -77.5760 64° Northeast 545 627 33,000  Level FlightAware
05:28AM 41.3278 -77.4744 64° Northeast 546 628 33,000  Level FlightAware ADS-B
05:28AM 41.3711 -77.3535 64° Northeast 546 628 33,000  Level FlightAware ADS-B
05:29AM 41.4039 -77.2614 65° Northeast 548 631 33,000  Level FlightAware ADS-B
05:29AM 41.4371 -77.1673 65° Northeast 548 631 33,000  Level FlightAware ADS-B
05:30AM 41.4701 -77.0736 65° Northeast 548 631 33,000  Level FlightAware ADS-B
05:30AM 41.5037 -76.9774 65° Northeast 547 629 33,000  Level FlightAware ADS-B
05:31AM 41.5363 -76.8836 65° Northeast 548 631 33,000  Level FlightAware ADS-B
05:31AM 41.5687 -76.7901 65° Northeast 549 632 33,000  Level FlightAware ADS-B
05:32AM 41.6021 -76.6932 65° Northeast 550 633 33,000 -120 Level FlightAware ADS-B
05:32AM 41.6337 -76.6010 65° Northeast 549 632 32,900 -600 Descending FlightAware ADS-B
05:33AM 41.6663 -76.5057 65° Northeast 550 633 32,400 -1,140 Descending FlightAware ADS-B
05:33AM 41.6980 -76.4125 65° Northeast 552 635 31,800 -1,200 Descending FlightAware ADS-B
05:34AM 41.7315 -76.3143 65° Northeast 556 640 31,200 -900 Descending FlightAware ADS-B
05:34AM 41.7642 -76.2177 66° East 555 639 30,900 -600 Descending FlightAware ADS-B
05:35AM 41.7960 -76.1233 66° East 552 635 30,600 -840 Descending FlightAware ADS-B
05:35AM 41.8277 -76.0294 66° East 549 632 30,100 -1,020 Descending FlightAware ADS-B
05:36AM 41.8614 -75.9287 66° East 543 625 29,600 -960 Descending FlightAware ADS-B
05:37AM 41.8930 -75.8343 66° East 541 623 29,100 -900 Descending FlightAware ADS-B
05:37AM 41.9380 -75.7010 66° East 534 615 28,500 -840 Descending FlightAware
05:38AM 41.9750 -75.5880 66° East 532 612 28,000 -480 Descending FlightAware
05:38AM 42.0010 -75.5090 66° East 531 611 28,000 -780 Level FlightAware
05:39AM 42.0370 -75.3990 66° East 526 605 27,200 -1,020 Descending FlightAware
05:39AM 42.0710 -75.3150 61° Northeast 517 595 27,000 -180 Descending FlightAware
05:40AM 42.1270 -75.2180 52° Northeast 519 597 27,000 -180 Level FlightAware
05:41AM 42.1730 -75.1180 58° Northeast 528 608 26,800 -900 Descending FlightAware
05:41AM 42.1960 -75.0030 75° East 524 603 26,000 -900 Descending FlightAware
05:42AM 42.2020 -74.9030 85° East 523 602 25,800 -1,440 Descending FlightAware
05:42AM 42.2062 -74.8211 86° East 520 598 24,700 -2,160 Descending FlightAware ADS-B
05:43AM 42.2114 -74.7211 86° East 512 589 24,000 -660 Descending FlightAware ADS-B
05:43AM 42.2190 -74.6070 85° East 511 588 23,900 -120 Descending FlightAware
05:44AM 42.2250 -74.5070 85° East 511 588 23,900  Level FlightAware
05:45AM 42.2310 -74.4090 85° East 511 588 23,900  Level FlightAware
05:45AM 42.2380 -74.3120 84° East 511 588 23,900  Level FlightAware
05:46AM 42.2440 -74.2120 85° East 511 588 23,900  Level FlightAware
05:46AM 42.2500 -74.1150 85° East 511 588 23,900 -3,360 Level FlightAware
05:48AM 42.2590 -73.7210 88° East 467 537 16,300 -3,900 Descending FlightAware
05:49AM 42.2630 -73.6380 86° East 459 528 15,400 -900 Descending FlightAware
05:49AM 42.2680 -73.5270 86° East 457 526 15,200 -180 Descending FlightAware
05:50AM 42.2730 -73.4400 86° East 457 526 15,200  Level FlightAware
05:51AM 42.2770 -73.3530 86° East 457 526 15,200  Level FlightAware
05:51AM 42.2820 -73.2660 86° East 457 526 15,200  Level FlightAware
05:52AM 42.2860 -73.1780 86° East 457 526 15,200  Level FlightAware
05:52AM 42.2910 -73.0890 86° East 457 526 15,200 -3,660 Level FlightAware
05:54AM 42.1972 -72.9136 86° East 327 376 8,000 -3,660 Descending Boston Center
05:55AM 42.1728 -72.7986 106° East 322 371 6,600 -1,620 Descending Boston Center
05:56AM 42.1500 -72.6922 106° East 310 357 4,800 -1,860 Descending Boston Center
05:57AM 42.1106 -72.6025 121° Southeast 281 323 2,900 -1,140 Descending Boston Center
05:58AM 42.0606 -72.5519 143° Southeast 246 283 2,500 -420 Descending Boston Center
05:59AM 42.0231 -72.5797 209° Southwest 156 180 2,100 -480 Descending Boston Center
06:00AM 42.0000 -72.6078 222° Southwest 130 150 1,600 -600 Descending Boston Center
06:01AM 41.9792 -72.6383 227° Southwest 120 138 1,000 -720 Descending Boston Center
06:02AM 41.9542 -72.6689 222° Southwest 120 138 300 -420 Descending Boston Center
06:03AM 41.9333 -72.6969 225° Southwest 120 138 200 -120 Descending Boston Center